메인 페이지
METAR-TAF:

METAR-TAF

공항 :

Kerrville Municipal Airport (Louis Schreiner Field)

Kerrville, 텍사스, 미국

위도: 29-58N, 경도: 099-05W, 고도: 493m

현재 날씨관측

예보는 34분 전, 09:35시(UTC)에 발표되었습니다.
무풍
온도 -2°C
습도 93%
기압 1026 hPa
시정: 16.1km
맑음

METAR: KERV 120935Z AUTO 00000KT 10SM CLR M02/M03 A3029 RMK AO2 T10181032

시각: 04:09 (10:09 UTC)


TAF: 누락

4,000개 이상의 공항 관측 자료 및 예보 (METAR 및 TAF 보고).

지도상에서 검색 가능한 기상관측소가 노란 점과 빨간 점으로 표시되어 있습니다.

기상관측소 명을 보려면 표시 위로 마우스를 이동하세요.

날씨 관측과 예보를 보려면 클릭하세요.

지도 변경 : 확대하려면 엑스 표시가 있는 녹색 버튼, 축소하려면 빼기 표시가 있는 녹색 버튼, 다음 페이지의 지도를 보려면 녹색 화살표를 클릭하세요.


METAR-TAF: